Time,TemperatureF,DewpointF,PressureIn,WindDirection,WindDirectionDegrees,WindSpeedMPH,WindSpeedGustMPH,Humidity,HourlyPrecipIn,Conditions,Clouds,dailyrainin,SoftwareType,DateUTC
2013-05-29 00:06:00,47.9,25.0,29.48,ESE,122,0.0,2.0,41,0.00,,,0.00,weatherlink.com 1.10,2013-05-29 06:06:00,
2013-05-29 00:21:00,46.8,25.0,29.46,ESE,122,0.0,1.0,43,0.00,,,0.00,weatherlink.com 1.10,2013-05-29 06:21:00,
2013-05-29 00:36:00,45.2,25.0,29.46,ESE,123,0.0,0.0,45,0.00,,,0.00,weatherlink.com 1.10,2013-05-29 06:36:00,
2013-05-29 00:51:00,45.5,26.0,29.46,SE,144,0.0,2.0,47,0.00,,,0.00,weatherlink.com 1.10,2013-05-29 06:51:00,
2013-05-29 01:06:00,45.9,27.0,29.48,SE,140,0.0,4.0,47,0.00,,,0.00,weatherlink.com 1.10,2013-05-29 07:06:00,
2013-05-29 01:21:00,44.5,28.0,29.48,SE,133,0.0,1.0,52,0.00,,,0.00,weatherlink.com 1.10,2013-05-29 07:21:00,
2013-05-29 01:36:00,44.7,32.0,29.49,SE,137,0.0,7.0,61,0.00,,,0.00,weatherlink.com 1.10,2013-05-29 07:36:00,
2013-05-29 01:51:00,44.8,33.0,29.49,SE,136,0.0,2.0,63,0.00,,,0.00,weatherlink.com 1.10,2013-05-29 07:51:00,
2013-05-29 02:06:00,43.3,33.0,29.50,SE,139,0.0,0.0,67,0.00,,,0.00,weatherlink.com 1.10,2013-05-29 08:06:00,
2013-05-29 02:21:00,41.3,32.0,29.49,SE,137,0.0,0.0,70,0.00,,,0.00,weatherlink.com 1.10,2013-05-29 08:21:00,
2013-05-29 02:36:00,39.8,32.0,29.49,SE,137,0.0,0.0,73,0.00,,,0.00,weatherlink.com 1.10,2013-05-29 08:36:00,
2013-05-29 02:51:00,38.3,31.0,29.49,SE,137,0.0,0.0,75,0.00,,,0.00,weatherlink.com 1.10,2013-05-29 08:51:00,
2013-05-29 03:06:00,37.4,31.0,29.49,SE,133,0.0,1.0,78,0.00,,,0.00,weatherlink.com 1.10,2013-05-29 09:06:00,
2013-05-29 03:21:00,36.4,31.0,29.49,ESE,105,0.0,1.0,81,0.00,,,0.00,weatherlink.com 1.10,2013-05-29 09:21:00,
2013-05-29 03:36:00,36.5,31.0,29.49,ESE,106,0.0,1.0,81,0.00,,,0.00,weatherlink.com 1.10,2013-05-29 09:36:00,
2013-05-29 03:51:00,37.2,32.0,29.50,ESE,118,0.0,1.0,81,0.00,,,0.00,weatherlink.com 1.10,2013-05-29 09:51:00,
2013-05-29 04:06:00,38.0,32.0,29.49,ESE,118,0.0,0.0,80,0.00,,,0.00,weatherlink.com 1.10,2013-05-29 10:06:00,
2013-05-29 04:21:00,38.7,33.0,29.49,ESE,118,0.0,0.0,79,0.00,,,0.00,weatherlink.com 1.10,2013-05-29 10:21:00,
2013-05-29 04:36:00,39.2,33.0,29.49,ESE,118,0.0,0.0,79,0.00,,,0.00,weatherlink.com 1.10,2013-05-29 10:36:00,
2013-05-29 04:51:00,39.6,34.0,29.49,ESE,118,0.0,0.0,79,0.00,,,0.00,weatherlink.com 1.10,2013-05-29 10:51:00,
2013-05-29 05:06:00,39.9,35.0,29.49,ESE,118,0.0,0.0,82,0.00,,,0.00,weatherlink.com 1.10,2013-05-29 11:06:00,
2013-05-29 05:21:00,40.3,36.0,29.49,ESE,118,0.0,0.0,84,0.00,,,0.00,weatherlink.com 1.10,2013-05-29 11:21:00,
2013-05-29 05:36:00,40.7,37.0,29.48,ESE,119,0.0,0.0,87,0.00,,,0.00,weatherlink.com 1.10,2013-05-29 11:36:00,
2013-05-29 05:52:00,41.0,38.0,29.47,ESE,118,0.0,0.0,90,0.00,,,0.00,weatherlink.com 1.10,2013-05-29 11:52:00,
2013-05-29 06:07:00,41.1,39.0,29.46,ESE,118,0.0,0.0,91,0.00,,,0.00,weatherlink.com 1.10,2013-05-29 12:07:00,
2013-05-29 06:22:00,41.2,39.0,29.46,SE,136,0.0,2.0,91,0.00,,,0.00,weatherlink.com 1.10,2013-05-29 12:22:00,
2013-05-29 06:37:00,39.7,37.0,29.47,ESE,122,0.0,2.0,90,0.10,,,0.10,weatherlink.com 1.10,2013-05-29 12:37:00,
2013-05-29 06:52:00,38.9,37.0,29.46,SE,132,0.0,1.0,92,0.12,,,0.12,weatherlink.com 1.10,2013-05-29 12:52:00,
2013-05-29 07:07:00,38.9,36.0,29.45,SE,141,1.0,4.0,90,0.13,,,0.13,weatherlink.com 1.10,2013-05-29 13:07:00,
2013-05-29 07:22:00,38.5,34.0,29.45,ESE,108,0.0,9.0,85,0.12,,,0.13,weatherlink.com 1.10,2013-05-29 13:22:00,
2013-05-29 07:37:00,38.1,36.0,29.44,SE,131,0.0,1.0,92,0.03,,,0.13,weatherlink.com 1.10,2013-05-29 13:37:00,
2013-05-29 07:52:00,38.4,37.0,29.43,ESE,119,1.0,1.0,94,0.01,,,0.13,weatherlink.com 1.10,2013-05-29 13:52:00,
2013-05-29 08:07:00,38.6,36.0,29.44,WSW,257,3.0,8.0,89,0.00,,,0.13,weatherlink.com 1.10,2013-05-29 14:07:00,
2013-05-29 08:37:00,37.8,35.0,29.42,ESE,117,0.0,3.0,89,0.01,,,0.14,weatherlink.com 1.10,2013-05-29 14:37:00,
2013-05-29 08:52:00,38.5,36.0,29.41,SSW,195,2.0,4.0,91,0.01,,,0.14,weatherlink.com 1.10,2013-05-29 14:52:00,
2013-05-29 09:07:00,40.7,34.0,29.40,South,173,1.0,5.0,78,0.01,,,0.14,weatherlink.com 1.10,2013-05-29 15:07:00,
2013-05-29 09:22:00,41.2,34.0,29.40,SE,134,0.0,7.0,75,0.00,,,0.14,weatherlink.com 1.10,2013-05-29 15:22:00,
2013-05-29 09:37:00,41.9,32.0,29.42,SE,125,1.0,10.0,69,0.00,,,0.14,weatherlink.com 1.10,2013-05-29 15:37:00,
2013-05-29 09:52:00,41.5,31.0,29.41,SSW,198,4.0,14.0,66,0.00,,,0.14,weatherlink.com 1.10,2013-05-29 15:52:00,
2013-05-29 10:07:00,44.7,30.0,29.41,SSW,206,5.0,13.0,56,0.00,,,0.14,weatherlink.com 1.10,2013-05-29 16:07:00,
2013-05-29 10:22:00,46.9,30.0,29.42,WSW,237,4.0,13.0,52,0.00,,,0.14,weatherlink.com 1.10,2013-05-29 16:22:00,
2013-05-29 10:37:00,48.5,28.0,29.42,WNW,300,4.0,9.0,46,0.00,,,0.14,weatherlink.com 1.10,2013-05-29 16:37:00,
2013-05-29 10:52:00,48.1,28.0,29.41,SSW,199,3.0,16.0,46,0.00,,,0.14,weatherlink.com 1.10,2013-05-29 16:52:00,
2013-05-29 11:07:00,50.0,29.0,29.41,SSE,158,1.0,8.0,44,0.00,,,0.14,weatherlink.com 1.10,2013-05-29 17:07:00,
2013-05-29 11:22:00,50.8,30.0,29.41,SSE,154,7.0,9.0,45,0.00,,,0.14,weatherlink.com 1.10,2013-05-29 17:22:00,
2013-05-29 11:37:00,50.2,29.0,29.42,SSW,213,3.0,14.0,45,0.00,,,0.14,weatherlink.com 1.10,2013-05-29 17:37:00,
2013-05-29 11:52:00,51.2,29.0,29.42,West,266,4.0,9.0,42,0.00,,,0.14,weatherlink.com 1.10,2013-05-29 17:52:00,
2013-05-29 12:07:00,47.2,37.0,29.43,WNW,289,6.0,9.0,67,0.00,,,0.14,weatherlink.com 1.10,2013-05-29 18:07:00,
2013-05-29 12:22:00,49.3,34.0,29.43,East,82,2.0,10.0,56,0.00,,,0.14,weatherlink.com 1.10,2013-05-29 18:22:00,
2013-05-29 12:37:00,50.8,33.0,29.43,SSW,193,3.0,8.0,50,0.00,,,0.14,weatherlink.com 1.10,2013-05-29 18:37:00,
2013-05-29 12:52:00,50.5,32.0,29.43,West,269,7.0,10.0,49,0.00,,,0.14,weatherlink.com 1.10,2013-05-29 18:52:00,
2013-05-29 13:07:00,50.6,31.0,29.44,SSE,165,1.0,8.0,47,0.00,,,0.14,weatherlink.com 1.10,2013-05-29 19:07:00,
2013-05-29 13:22:00,50.6,30.0,29.42,ESE,113,1.0,6.0,46,0.00,,,0.14,weatherlink.com 1.10,2013-05-29 19:22:00,
2013-05-29 13:37:00,50.9,32.0,29.44,SSW,207,6.0,7.0,48,0.00,,,0.14,weatherlink.com 1.10,2013-05-29 19:37:00,
2013-05-29 13:52:00,51.9,30.0,29.44,SE,130,1.0,7.0,44,0.00,,,0.14,weatherlink.com 1.10,2013-05-29 19:52:00,
2013-05-29 14:07:00,51.8,28.0,29.43,West,280,3.0,11.0,40,0.00,,,0.14,weatherlink.com 1.10,2013-05-29 20:07:00,
2013-05-29 14:22:00,52.4,32.0,29.43,ESE,108,1.0,7.0,46,0.00,,,0.14,weatherlink.com 1.10,2013-05-29 20:22:00,
2013-05-29 14:37:00,50.8,28.0,29.43,SSE,160,1.0,9.0,41,0.00,,,0.14,weatherlink.com 1.10,2013-05-29 20:37:00,
2013-05-29 14:52:00,52.7,30.0,29.42,NNW,341,1.0,6.0,42,0.00,,,0.14,weatherlink.com 1.10,2013-05-29 20:52:00,
2013-05-29 15:07:00,52.9,30.0,29.42,WNW,301,0.0,4.0,41,0.00,,,0.14,weatherlink.com 1.10,2013-05-29 21:07:00,
2013-05-29 15:22:00,52.1,27.0,29.43,East,80,4.0,7.0,38,0.00,,,0.14,weatherlink.com 1.10,2013-05-29 21:22:00,
2013-05-29 15:37:00,51.5,26.0,29.44,SE,139,0.0,3.0,38,0.00,,,0.14,weatherlink.com 1.10,2013-05-29 21:37:00,
2013-05-29 15:52:00,51.7,28.0,29.44,ESE,114,3.0,10.0,40,0.00,,,0.14,weatherlink.com 1.10,2013-05-29 21:52:00,
2013-05-29 16:07:00,52.8,29.0,29.42,NNE,31,5.0,5.0,41,0.00,,,0.14,weatherlink.com 1.10,2013-05-29 22:07:00,
2013-05-29 16:22:00,53.0,28.0,29.43,SE,129,2.0,14.0,39,0.00,,,0.14,weatherlink.com 1.10,2013-05-29 22:22:00,
2013-05-29 16:37:00,52.6,29.0,29.43,WNW,292,3.0,11.0,40,0.00,,,0.14,weatherlink.com 1.10,2013-05-29 22:37:00,
2013-05-29 16:52:00,51.8,30.0,29.43,ESE,106,1.0,10.0,44,0.00,,,0.14,weatherlink.com 1.10,2013-05-29 22:52:00,
2013-05-29 17:07:00,50.3,30.0,29.45,WSW,249,6.0,9.0,45,0.00,,,0.14,weatherlink.com 1.10,2013-05-29 23:07:00,
2013-05-29 17:22:00,48.1,31.0,29.45,SE,130,2.0,7.0,52,0.00,,,0.14,weatherlink.com 1.10,2013-05-29 23:22:00,
2013-05-29 17:38:00,46.2,31.0,29.48,NE,56,3.0,19.0,55,0.00,,,0.14,weatherlink.com 1.10,2013-05-29 23:38:00,
2013-05-29 17:53:00,42.7,33.0,29.49,SE,136,1.0,9.0,68,0.01,,,0.15,weatherlink.com 1.10,2013-05-29 23:53:00,
2013-05-29 18:08:00,40.2,33.0,29.49,SE,130,0.0,11.0,76,0.02,,,0.16,weatherlink.com 1.10,2013-05-30 00:08:00,
2013-05-29 18:23:00,41.7,29.0,29.45,WSW,239,3.0,13.0,62,0.03,,,0.17,weatherlink.com 1.10,2013-05-30 00:23:00,
2013-05-29 18:38:00,44.3,27.0,29.42,SW,215,9.0,10.0,51,0.03,,,0.17,weatherlink.com 1.10,2013-05-30 00:38:00,
2013-05-29 18:53:00,45.3,25.0,29.44,SE,141,0.0,13.0,46,0.02,,,0.17,weatherlink.com 1.10,2013-05-30 00:53:00,
2013-05-29 19:08:00,43.4,28.0,29.46,South,191,6.0,11.0,55,0.01,,,0.17,weatherlink.com 1.10,2013-05-30 01:08:00,
2013-05-29 19:23:00,42.5,28.0,29.45,South,169,4.0,9.0,58,0.00,,,0.17,weatherlink.com 1.10,2013-05-30 01:23:00,
2013-05-29 19:38:00,42.5,27.0,29.47,SSE,152,1.0,7.0,54,0.00,,,0.17,weatherlink.com 1.10,2013-05-30 01:38:00,
2013-05-29 19:53:00,42.8,27.0,29.49,South,186,1.0,6.0,55,0.00,,,0.17,weatherlink.com 1.10,2013-05-30 01:53:00,
2013-05-29 20:08:00,42.7,27.0,29.49,South,183,2.0,9.0,54,0.00,,,0.17,weatherlink.com 1.10,2013-05-30 02:08:00,
2013-05-29 20:23:00,41.7,29.0,29.50,East,101,3.0,8.0,60,0.00,,,0.17,weatherlink.com 1.10,2013-05-30 02:23:00,
2013-05-29 20:38:00,41.0,28.0,29.52,ENE,76,3.0,3.0,60,0.00,,,0.17,weatherlink.com 1.10,2013-05-30 02:38:00,
2013-05-29 20:53:00,41.9,27.0,29.52,SE,136,0.0,6.0,55,0.00,,,0.17,weatherlink.com 1.10,2013-05-30 02:53:00,
2013-05-29 21:08:00,41.8,27.0,29.54,SE,139,1.0,9.0,57,0.00,,,0.17,weatherlink.com 1.10,2013-05-30 03:08:00,
2013-05-29 21:23:00,41.4,27.0,29.56,SSE,158,1.0,4.0,58,0.00,,,0.17,weatherlink.com 1.10,2013-05-30 03:23:00,
2013-05-29 21:38:00,40.6,30.0,29.57,ESE,111,0.0,7.0,65,0.00,,,0.17,weatherlink.com 1.10,2013-05-30 03:38:00,
2013-05-29 21:53:00,40.7,29.0,29.56,SE,129,0.0,10.0,63,0.00,,,0.17,weatherlink.com 1.10,2013-05-30 03:53:00,
2013-05-29 22:08:00,41.3,28.0,29.57,SSE,162,2.0,12.0,60,0.00,,,0.17,weatherlink.com 1.10,2013-05-30 04:08:00,
2013-05-29 22:23:00,41.1,30.0,29.57,SE,141,2.0,4.0,64,0.00,,,0.17,weatherlink.com 1.10,2013-05-30 04:23:00,
2013-05-29 22:38:00,41.1,29.0,29.57,South,172,2.0,9.0,63,0.00,,,0.17,weatherlink.com 1.10,2013-05-30 04:38:00,
2013-05-29 22:53:00,39.6,29.0,29.56,SSE,147,0.0,5.0,65,0.00,,,0.17,weatherlink.com 1.10,2013-05-30 04:53:00,
2013-05-29 23:08:00,41.7,24.0,29.57,SSE,158,1.0,23.0,49,0.00,,,0.17,weatherlink.com 1.10,2013-05-30 05:08:00,
2013-05-29 23:23:00,41.9,26.0,29.56,ESE,118,0.0,9.0,54,0.00,,,0.17,weatherlink.com 1.10,2013-05-30 05:23:00,
2013-05-29 23:38:00,42.7,24.0,29.55,West,262,5.0,15.0,47,0.00,,,0.17,weatherlink.com 1.10,2013-05-30 05:38:00,
2013-05-29 23:53:00,43.2,23.0,29.54,East,96,4.0,15.0,45,0.00,,,0.17,weatherlink.com 1.10,2013-05-30 05:53:00,